createdAt,value
2019-04-23T11:39:42.994Z,49.29
2019-04-23T11:40:37.825Z,47.94
2019-04-23T11:41:45.371Z,47.65
2019-04-23T11:42:47.180Z,48.21
2019-04-23T11:43:32.560Z,48.01
2019-04-23T11:51:05.074Z,50.62
2019-04-23T11:52:41.459Z,50.69
2019-04-23T11:53:42.560Z,50.18
2019-04-23T11:54:36.027Z,50.59
2019-04-23T11:57:52.592Z,49.85
2019-04-23T12:00:05.303Z,49.07
2019-04-23T12:01:00.903Z,49.07
2019-04-23T12:01:47.787Z,49.29
2019-04-23T12:03:45.401Z,49.27
2019-04-23T12:04:45.303Z,48.49
2019-04-23T12:06:09.530Z,49.27
2019-04-23T12:06:44.476Z,50.09
2019-04-23T12:07:41.228Z,50.59
2019-04-23T12:08:56.591Z,50.69
2019-04-23T12:10:47.832Z,50.04
2019-04-23T12:13:44.111Z,49.07
2019-04-23T12:14:51.674Z,48.88
2019-04-23T12:15:39.556Z,49.49
2019-04-23T12:16:55.593Z,49.39
2019-04-23T12:19:33.404Z,48.90
2019-04-23T12:20:49.520Z,48.61
2019-04-23T12:21:53.127Z,49.22
2019-04-23T12:22:51.292Z,48.54
2019-04-23T12:25:45.829Z,49.27
2019-04-23T12:26:49.316Z,49.85
2019-04-23T12:28:01.741Z,49.49
2019-04-23T12:28:56.816Z,49.99
2019-04-23T12:30:49.111Z,47.58
2019-04-23T12:31:56.997Z,48.03
2019-04-23T12:32:53.694Z,47.67
2019-04-23T12:35:01.301Z,47.38
2019-04-23T12:35:40.467Z,47.28
2019-04-23T12:36:46.899Z,47.79
2019-04-23T12:38:45.314Z,46.25
2019-04-23T12:39:56.774Z,47.21
2019-04-23T12:40:45.919Z,47.31
2019-04-23T12:41:54.671Z,46.25
2019-04-23T12:42:55.204Z,46.44
2019-04-23T12:43:53.253Z,46.05
2019-04-23T12:44:56.723Z,45.57
2019-04-23T12:45:43.646Z,46.56
2019-04-23T12:47:09.063Z,45.95
2019-04-23T12:49:00.557Z,46.90
2019-04-23T12:50:44.784Z,46.61
2019-04-23T12:51:56.093Z,46.51
2019-04-23T12:53:50.711Z,46.42
2019-04-23T12:54:58.913Z,46.53
2019-04-23T12:55:43.780Z,45.54
2019-04-23T12:57:53.507Z,46.90
2019-04-23T12:58:45.238Z,47.21
2019-04-23T12:59:53.087Z,46.61
2019-04-23T13:00:45.808Z,46.42
2019-04-23T13:01:55.922Z,46.39
2019-04-23T13:02:48.512Z,46.12
2019-04-23T13:03:56.280Z,46.32
2019-04-23T13:04:51.732Z,45.72
2019-04-23T13:05:42.261Z,45.91
2019-04-23T13:06:50.869Z,45.72
2019-04-23T13:07:52.046Z,45.50
2019-04-23T13:08:53.721Z,46.37
2019-04-23T13:09:54.060Z,46.68
2019-04-23T13:11:50.014Z,46.70
2019-04-23T13:13:21.147Z,47.02
2019-04-23T13:13:53.560Z,44.98
2019-04-23T13:16:02.548Z,43.90
2019-04-23T13:17:01.949Z,44.46
2019-04-23T13:18:52.450Z,45.16
2019-04-23T13:20:51.368Z,45.72
2019-04-23T13:23:49.445Z,46.39
2019-04-23T13:24:56.007Z,46.90
2019-04-23T13:25:54.129Z,46.61
2019-04-23T13:26:57.284Z,46.61
2019-04-23T13:28:51.011Z,45.54
2019-04-23T13:29:56.789Z,46.20
2019-04-23T13:31:17.833Z,46.00
2019-04-23T13:31:50.238Z,45.42
2019-04-23T13:32:59.073Z,46.10
2019-04-23T13:33:52.143Z,45.52
2019-04-23T13:36:01.706Z,46.30
2019-04-23T13:37:05.165Z,45.83
2019-04-23T13:38:34.876Z,46.51
2019-04-23T13:38:55.002Z,45.83
2019-04-23T13:40:24.439Z,46.70
2019-04-23T13:41:01.306Z,45.74
2019-04-23T13:41:52.512Z,46.61
2019-04-23T13:43:01.519Z,46.12
2019-04-23T13:43:47.855Z,46.70
2019-04-23T13:45:07.339Z,46.20
2019-04-23T13:47:02.964Z,46.39
2019-04-23T13:48:06.582Z,47.58
2019-04-23T13:49:02.752Z,47.28
2019-04-23T13:50:07.447Z,46.42
2019-04-23T13:52:12.795Z,46.51
2019-04-23T13:53:58.861Z,46.32
2019-04-23T13:55:11.147Z,45.64
2019-04-23T13:55:47.084Z,45.91
2019-04-23T13:58:10.992Z,47.07
2019-04-23T13:59:09.531Z,47.19
2019-04-23T14:00:09.012Z,46.42
2019-04-23T14:01:07.462Z,47.19
2019-04-23T14:02:07.730Z,46.53
2019-04-23T14:03:06.160Z,46.34
2019-04-23T14:04:27.744Z,45.66
2019-04-23T14:06:09.064Z,45.64
2019-04-23T14:08:12.178Z,46.70
2019-04-23T14:08:59.585Z,46.00
2019-04-23T14:10:18.229Z,46.88
2019-04-23T14:11:05.553Z,46.78
2019-04-23T14:12:01.651Z,47.07
2019-04-23T14:13:30.210Z,47.28
2019-04-23T14:14:25.483Z,47.00
2019-04-23T14:16:03.895Z,43.49
2019-04-23T14:17:18.663Z,44.36
2019-04-23T14:18:29.462Z,43.78
2019-04-23T14:19:12.972Z,44.36
2019-04-23T14:20:07.198Z,44.67
2019-04-23T14:21:14.170Z,43.30
2019-04-23T14:25:08.066Z,43.13
2019-04-23T14:27:08.814Z,42.25
2019-04-23T14:29:07.316Z,43.24
2019-04-23T14:30:13.790Z,44.23
2019-04-23T14:32:08.778Z,43.24
2019-04-23T14:33:15.301Z,43.15
2019-04-23T14:34:04.839Z,43.32
2019-04-23T14:35:25.444Z,43.88
2019-04-23T14:36:12.540Z,43.03
2019-04-23T14:37:13.279Z,43.13
2019-04-23T14:39:10.035Z,43.41
2019-04-23T14:40:13.351Z,44.31
2019-04-23T14:42:33.801Z,43.05
2019-04-23T14:44:12.985Z,43.34
2019-04-23T14:45:25.013Z,42.86
2019-04-23T14:47:22.151Z,42.83
2019-04-23T14:48:19.723Z,43.44
2019-04-23T14:49:30.078Z,42.96
2019-04-23T14:50:29.426Z,42.76
2019-04-23T14:52:16.439Z,43.51
2019-04-23T14:53:21.451Z,44.29
2019-04-23T14:54:12.857Z,43.54
2019-04-23T14:55:40.540Z,43.34
2019-04-23T14:56:17.059Z,43.32
2019-04-23T14:57:23.204Z,42.83
2019-04-23T14:58:23.802Z,43.15
2019-04-23T14:59:06.729Z,43.13
2019-04-23T15:00:23.485Z,44.48
2019-04-23T15:03:20.400Z,43.41
2019-04-23T15:04:11.035Z,43.71
2019-04-23T15:05:21.703Z,43.80
2019-04-23T15:07:22.909Z,43.40
2019-04-23T15:08:21.130Z,43.49
2019-04-23T15:09:22.956Z,43.49
2019-04-23T15:10:18.463Z,43.88
2019-04-23T15:13:06.889Z,44.56
2019-04-23T15:13:21.254Z,44.36
2019-04-23T15:14:17.590Z,44.17
2019-04-23T15:16:39.869Z,44.84
2019-04-23T15:18:20.256Z,44.96
2019-04-23T15:19:34.592Z,43.88
2019-04-23T15:20:17.195Z,44.17
2019-04-23T15:21:37.638Z,45.04
2019-04-23T15:23:33.301Z,44.24
2019-04-23T15:25:26.399Z,44.34
2019-04-23T15:28:07.800Z,46.17
2019-04-23T15:29:04.487Z,45.79
2019-04-23T15:30:09.064Z,46.37
2019-04-23T15:31:28.468Z,45.59
2019-04-23T15:32:23.854Z,45.67
2019-04-23T15:33:41.276Z,45.57
2019-04-23T15:35:37.105Z,46.15
2019-04-23T15:36:58.219Z,46.25
2019-04-23T15:37:33.232Z,46.15
2019-04-23T15:38:34.004Z,46.64
2019-04-23T15:39:21.116Z,46.73
2019-04-23T15:42:26.589Z,46.61
2019-04-23T15:45:24.197Z,47.96
2019-04-23T15:46:30.661Z,47.77
2019-04-23T15:49:01.507Z,47.77
2019-04-23T15:49:23.471Z,47.96
2019-04-23T15:50:29.732Z,48.35
2019-04-23T15:52:35.264Z,48.52
2019-04-23T15:53:11.576Z,49.12
2019-04-23T15:55:22.164Z,48.44
2019-04-23T15:57:41.799Z,47.75
2019-04-23T15:58:35.751Z,49.39
2019-04-23T16:00:18.109Z,48.74
2019-04-23T16:01:24.081Z,47.87
2019-04-23T16:01:54.320Z,48.23
2019-04-23T16:02:54.540Z,48.81
2019-04-23T16:03:59.328Z,48.42
2019-04-23T16:04:58.071Z,49.10
2019-04-23T16:05:55.336Z,49.10
2019-04-23T16:06:55.975Z,49.29
2019-04-23T16:08:23.909Z,48.71
2019-04-23T16:09:17.814Z,49.19
2019-04-23T16:10:28.817Z,48.90
2019-04-23T16:12:25.539Z,48.71
2019-04-23T16:13:31.069Z,49.00
2019-04-23T16:14:32.495Z,49.10
2019-04-23T16:15:23.165Z,48.61
2019-04-23T16:16:29.980Z,48.23
2019-04-23T16:17:29.081Z,49.10
2019-04-23T16:18:42.151Z,49.87
2019-04-23T16:19:25.503Z,49.87
2019-04-23T16:20:31.465Z,48.71
2019-04-23T16:21:35.856Z,50.06
2019-04-23T16:22:24.890Z,49.84
2019-04-23T16:23:28.013Z,49.84
2019-04-23T16:24:21.918Z,49.94
2019-04-23T16:25:20.398Z,49.75
2019-04-23T16:26:53.234Z,49.75
2019-04-23T16:27:19.628Z,50.52
2019-04-23T16:28:50.456Z,50.81
2019-04-23T16:29:35.884Z,50.81
2019-04-23T16:30:31.312Z,50.52
2019-04-23T16:32:56.112Z,51.00
2019-04-23T16:33:20.100Z,50.62
2019-04-23T16:34:33.742Z,50.69
2019-04-23T16:37:29.253Z,50.90
2019-04-23T16:38:39.922Z,51.10
2019-04-23T16:39:31.682Z,51.77
2019-04-23T16:40:33.172Z,51.68
2019-04-23T16:41:42.199Z,51.00
2019-04-23T16:42:38.238Z,51.77
2019-04-23T16:43:30.651Z,51.10
2019-04-23T16:44:39.294Z,51.48
2019-04-23T16:46:54.115Z,51.77
2019-04-23T16:47:30.647Z,51.39
2019-04-23T16:49:44.593Z,51.97
2019-04-23T16:50:41.758Z,51.68
2019-04-23T16:52:32.846Z,51.68
2019-04-23T16:54:45.327Z,51.26
2019-04-23T16:55:38.357Z,51.97
2019-04-23T16:56:55.398Z,51.84
2019-04-23T16:59:43.349Z,52.04
2019-04-23T17:00:43.985Z,52.61
2019-04-23T17:01:37.298Z,52.33
2019-04-23T17:02:34.036Z,52.81
2019-04-23T17:04:39.005Z,52.04
2019-04-23T17:06:57.855Z,52.13
2019-04-23T17:07:38.134Z,52.81
2019-04-23T17:08:53.619Z,52.91
2019-04-23T17:10:38.404Z,53.19
2019-04-23T17:11:34.320Z,53.00
2019-04-23T17:12:38.726Z,52.71
2019-04-23T17:13:55.422Z,52.42
2019-04-23T17:14:32.997Z,52.71
2019-04-23T17:15:48.406Z,53.09
2019-04-23T17:16:39.920Z,53.19
2019-04-23T17:17:30.852Z,53.19
2019-04-23T17:19:40.609Z,52.87
2019-04-23T17:20:41.295Z,53.17
2019-04-23T17:21:53.363Z,53.45
2019-04-23T17:22:38.758Z,53.87
2019-04-23T17:25:01.955Z,52.78
2019-04-23T17:25:41.894Z,53.17
2019-04-23T17:26:35.888Z,53.27
2019-04-23T17:27:42.451Z,53.55
2019-04-23T17:29:02.673Z,53.27
2019-04-23T17:30:41.757Z,53.65
2019-04-23T17:32:36.197Z,54.03
2019-04-23T17:33:43.557Z,53.84
2019-04-23T17:35:45.036Z,54.03
2019-04-23T17:36:37.425Z,55.09
2019-04-23T17:37:38.558Z,54.80
2019-04-23T17:38:51.426Z,54.42
2019-04-23T17:39:43.869Z,54.71
2019-04-23T17:40:39.375Z,54.90
2019-04-23T17:41:57.444Z,54.52
2019-04-23T17:42:37.369Z,54.32
2019-04-23T17:43:54.741Z,54.80
2019-04-23T17:45:40.777Z,55.07
2019-04-23T17:46:43.139Z,55.67
2019-04-23T17:47:47.920Z,55.16
2019-04-23T17:48:34.998Z,55.26
2019-04-23T17:49:51.316Z,54.87
2019-04-23T17:50:44.087Z,55.16
2019-04-23T17:51:40.388Z,55.35
2019-04-23T17:52:52.628Z,54.97
2019-04-23T17:53:49.873Z,55.35
2019-04-23T17:54:53.489Z,55.93
2019-04-23T17:55:54.888Z,55.74
2019-04-23T17:56:54.163Z,55.16
2019-04-23T17:57:45.973Z,55.55
2019-04-23T17:58:58.615Z,55.74
2019-04-23T18:00:00.311Z,55.74
2019-04-23T18:00:51.615Z,56.41
2019-04-23T18:02:00.167Z,56.32
2019-04-23T18:02:55.168Z,56.90
2019-04-23T18:03:55.540Z,56.12
2019-04-23T18:06:04.071Z,56.29
2019-04-23T18:07:54.088Z,56.96
2019-04-23T18:09:57.031Z,57.54
2019-04-23T18:11:01.549Z,56.87
2019-04-23T18:12:51.503Z,57.45
2019-04-23T18:13:50.571Z,57.45
2019-04-23T18:14:59.067Z,57.54
2019-04-23T18:15:53.731Z,57.25
2019-04-23T18:17:24.205Z,57.64
2019-04-23T18:17:57.097Z,57.73
2019-04-23T18:19:06.401Z,57.25
2019-04-23T18:19:53.579Z,56.77
2019-04-23T18:20:57.953Z,57.35
2019-04-23T18:21:58.985Z,57.35
2019-04-23T18:22:54.306Z,57.64
2019-04-23T18:23:55.336Z,57.54
2019-04-23T18:24:50.544Z,57.64
2019-04-23T18:25:56.297Z,57.73
2019-04-23T18:28:58.754Z,57.92
2019-04-23T18:32:03.718Z,58.60
2019-04-23T18:33:22.014Z,58.98
2019-04-23T18:34:05.391Z,58.89
2019-04-23T18:35:13.834Z,59.27
2019-04-23T18:35:44.690Z,59.44
2019-04-23T18:36:52.197Z,59.63
2019-04-23T18:37:49.231Z,59.63
2019-04-23T18:38:53.234Z,59.63
2019-04-23T18:39:49.918Z,59.44
2019-04-23T18:41:02.028Z,59.72
2019-04-23T18:42:04.086Z,59.34
2019-04-23T18:42:53.829Z,59.24
2019-04-23T18:43:50.961Z,60.11
2019-04-23T18:44:58.522Z,59.82
2019-04-23T18:46:49.127Z,60.21
2019-04-23T18:47:50.368Z,60.11
2019-04-23T18:49:55.824Z,60.11
2019-04-23T18:51:00.179Z,60.01
2019-04-23T18:52:14.555Z,59.72
2019-04-23T18:52:57.864Z,60.11
2019-04-23T18:54:53.911Z,60.39
2019-04-23T18:56:06.677Z,60.78
2019-04-23T18:58:04.031Z,60.97
2019-04-23T18:59:00.891Z,60.78
2019-04-23T18:59:57.044Z,61.04
2019-04-23T19:02:00.676Z,61.04
2019-04-23T19:04:07.163Z,61.43
2019-04-23T19:05:07.221Z,61.14
2019-04-23T19:06:07.157Z,61.14
2019-04-23T19:06:41.289Z,61.23
2019-04-23T19:08:07.555Z,61.81
2019-04-23T19:09:04.412Z,61.61
2019-04-23T19:10:15.793Z,60.94
2019-04-23T19:10:58.013Z,61.43
2019-04-23T19:12:24.813Z,61.61
2019-04-23T19:13:57.376Z,62.10
2019-04-23T19:15:05.633Z,62.58
2019-04-23T19:15:53.593Z,62.68
2019-04-23T19:18:16.930Z,63.12
2019-04-23T19:20:00.991Z,61.97
2019-04-23T19:23:08.243Z,63.02
2019-04-23T19:23:54.949Z,63.25
2019-04-23T19:25:01.715Z,63.02
2019-04-23T19:26:40.537Z,62.64
2019-04-23T19:28:12.101Z,63.22
2019-04-23T19:29:07.072Z,63.12
2019-04-23T19:30:31.308Z,62.84
2019-04-23T19:31:01.816Z,63.02
2019-04-23T19:33:05.840Z,63.12
2019-04-23T19:34:58.955Z,63.12
2019-04-23T19:36:19.041Z,63.02
2019-04-23T19:38:10.576Z,63.41
2019-04-23T19:39:14.838Z,63.70
2019-04-23T19:40:04.781Z,63.79
2019-04-23T19:41:02.203Z,63.41
2019-04-23T19:43:00.928Z,63.70
2019-04-23T19:45:07.775Z,63.70
2019-04-23T19:46:16.190Z,63.79
2019-04-23T19:48:13.443Z,63.60
2019-04-23T19:50:03.637Z,63.79
2019-04-23T19:51:11.422Z,63.70
2019-04-23T19:54:20.150Z,63.70
2019-04-23T19:57:17.849Z,64.28
2019-04-23T19:58:16.126Z,64.18
2019-04-23T19:59:01.920Z,64.85
2019-04-23T20:00:09.718Z,64.76
2019-04-23T20:03:17.170Z,64.37
2019-04-23T20:04:04.282Z,64.95
2019-04-23T20:05:09.227Z,65.11
2019-04-23T20:06:07.913Z,65.49
2019-04-23T20:08:16.349Z,64.72
2019-04-23T20:10:03.962Z,64.95
2019-04-23T20:12:13.995Z,65.01
2019-04-23T20:13:07.880Z,64.92
2019-04-23T20:14:29.596Z,65.23
2019-04-23T20:15:00.234Z,65.33
2019-04-23T20:16:26.016Z,65.43
2019-04-23T20:17:32.053Z,65.72
2019-04-23T20:18:09.043Z,65.69
2019-04-23T20:19:05.141Z,65.59
2019-04-23T20:20:08.965Z,65.59
2019-04-23T20:21:03.793Z,65.78
2019-04-23T20:23:11.895Z,66.07
2019-04-23T20:24:20.279Z,65.69
2019-04-23T20:25:44.193Z,66.07
2019-04-23T20:27:26.422Z,66.26
2019-04-23T20:28:33.819Z,66.46
2019-04-23T20:35:16.621Z,66.16
2019-04-23T20:36:25.803Z,66.36
2019-04-23T20:37:12.650Z,66.93
2019-04-23T20:40:31.146Z,66.46
2019-04-23T20:41:28.290Z,66.84
2019-04-23T20:42:18.285Z,66.93
2019-04-23T20:43:14.959Z,67.13
2019-04-23T20:44:25.658Z,67.13
2019-04-23T20:45:42.347Z,67.41
2019-04-23T20:46:14.800Z,67.03
2019-04-23T20:48:27.344Z,67.99
2019-04-23T20:49:23.370Z,67.90
2019-04-23T20:50:10.456Z,67.41
2019-04-23T20:51:14.329Z,67.61
2019-04-23T20:53:13.670Z,67.41
2019-04-23T20:54:27.034Z,68.05
2019-04-23T20:55:25.951Z,68.63
2019-04-23T20:56:27.158Z,68.05
2019-04-23T20:57:30.522Z,67.90
2019-04-23T20:58:15.208Z,67.22
2019-04-23T20:59:30.854Z,67.90
2019-04-23T21:01:21.868Z,68.66
2019-04-23T21:02:30.007Z,68.08
2019-04-23T21:04:17.757Z,67.32
2019-04-23T21:06:28.381Z,68.63
2019-04-23T21:07:28.317Z,68.28
2019-04-23T21:08:24.644Z,68.28
2019-04-23T21:09:33.477Z,68.44
2019-04-23T21:10:34.820Z,68.82
2019-04-23T21:11:24.998Z,68.44
2019-04-23T21:12:43.126Z,68.44
2019-04-23T21:14:40.387Z,68.91
2019-04-23T21:16:25.093Z,68.34
2019-04-23T21:17:29.248Z,67.86
2019-04-23T21:19:35.664Z,68.91
2019-04-23T21:20:33.581Z,68.82
2019-04-23T21:21:27.127Z,68.82
2019-04-23T21:22:30.751Z,68.82
2019-04-23T21:23:30.265Z,68.82
2019-04-23T21:24:27.379Z,68.91
2019-04-23T21:26:26.335Z,69.01
2019-04-23T21:27:41.012Z,68.05
2019-04-23T21:29:25.876Z,68.91
2019-04-23T21:30:43.146Z,68.91
2019-04-23T21:31:42.798Z,69.49
2019-04-23T21:32:35.420Z,69.30
2019-04-23T21:33:25.962Z,69.87
2019-04-23T21:34:24.873Z,69.68
2019-04-23T21:35:46.340Z,70.17
2019-04-23T21:37:37.384Z,69.78
2019-04-23T21:38:41.123Z,70.26
2019-04-23T21:39:38.969Z,69.97
2019-04-23T21:41:39.258Z,70.55
2019-04-23T21:42:39.057Z,70.74
2019-04-23T21:43:35.875Z,70.61
2019-04-23T21:44:40.799Z,70.90
2019-04-23T21:45:35.096Z,70.99
2019-04-23T21:46:41.695Z,71.51
2019-04-23T21:47:42.635Z,70.99
2019-04-23T21:48:48.759Z,71.47
2019-04-23T21:49:38.960Z,71.47
2019-04-23T21:50:39.480Z,71.66
2019-04-23T21:52:48.465Z,71.76
2019-04-23T21:53:32.873Z,71.86
2019-04-23T21:54:29.280Z,72.33
2019-04-23T21:55:39.023Z,72.72
2019-04-23T21:56:33.187Z,73.10
2019-04-23T21:57:41.834Z,72.81
2019-04-23T21:58:47.610Z,73.30
2019-04-23T21:59:32.402Z,73.39
2019-04-23T22:00:36.509Z,73.39
2019-04-23T22:01:38.283Z,73.74
2019-04-23T22:02:36.093Z,74.31
2019-04-23T22:03:43.575Z,73.35
2019-04-23T22:06:36.921Z,74.12
2019-04-23T22:07:49.457Z,74.31
2019-04-23T22:08:41.335Z,74.31
2019-04-23T22:09:37.854Z,74.41
2019-04-23T22:10:32.989Z,74.02
2019-04-23T22:12:33.467Z,74.60
2019-04-23T22:13:53.858Z,75.08
2019-04-23T22:15:47.828Z,75.08
2019-04-23T22:16:46.255Z,75.18
2019-04-23T22:18:46.079Z,75.08
2019-04-23T22:20:43.704Z,75.37
2019-04-23T22:21:47.290Z,75.18
2019-04-23T22:22:49.593Z,76.04
2019-04-23T22:23:52.881Z,76.04
2019-04-23T22:24:32.165Z,76.39
2019-04-23T22:25:50.178Z,76.04
2019-04-23T22:26:53.407Z,76.23
2019-04-23T22:27:41.242Z,76.71
2019-04-23T22:28:50.707Z,76.52
2019-04-23T22:30:50.548Z,76.32
2019-04-23T22:31:41.799Z,76.42
2019-04-23T22:32:48.724Z,76.29
2019-04-23T22:33:47.717Z,77.25
2019-04-23T22:34:42.851Z,76.96
2019-04-23T22:35:51.444Z,77.15
2019-04-23T22:36:42.500Z,77.44
2019-04-23T22:37:42.440Z,77.15
2019-04-23T22:38:45.283Z,77.73
2019-04-23T22:39:39.867Z,77.34
2019-04-23T22:40:41.381Z,77.15
2019-04-23T22:41:58.163Z,77.44
2019-04-23T22:43:55.681Z,76.71
2019-04-23T22:44:51.350Z,76.62
2019-04-23T22:45:59.916Z,76.39
2019-04-23T22:46:52.404Z,76.52
2019-04-23T22:47:47.936Z,77.44
2019-04-23T22:48:47.621Z,77.44
2019-04-23T22:49:44.103Z,76.67
2019-04-23T22:50:47.404Z,76.96
2019-04-23T22:51:59.178Z,77.63
2019-04-23T22:52:48.807Z,77.44
2019-04-23T22:53:53.801Z,77.53
2019-04-23T22:54:51.302Z,77.44
2019-04-23T22:55:49.703Z,77.53
2019-04-23T22:56:53.649Z,77.25
2019-04-23T22:57:58.715Z,77.53
2019-04-23T22:58:54.380Z,77.44
2019-04-23T23:00:00.718Z,77.63
2019-04-23T23:00:46.738Z,77.34
2019-04-23T23:02:53.512Z,77.73
2019-04-23T23:03:54.503Z,78.11
2019-04-23T23:04:52.516Z,77.92
2019-04-23T23:06:06.419Z,78.30
2019-04-23T23:06:59.040Z,78.49
2019-04-23T23:07:55.751Z,78.69
2019-04-23T23:09:10.703Z,78.97
2019-04-23T23:09:56.438Z,78.97
2019-04-23T23:10:52.207Z,79.03
2019-04-23T23:13:01.777Z,79.51
2019-04-23T23:14:01.141Z,79.26
2019-04-23T23:14:57.448Z,79.51
2019-04-23T23:18:02.111Z,78.93
2019-04-23T23:18:59.805Z,79.03
2019-04-23T23:20:03.624Z,79.22
2019-04-23T23:20:55.347Z,79.22
2019-04-23T23:21:59.497Z,79.32
2019-04-23T23:22:57.283Z,79.13
2019-04-23T23:23:49.746Z,79.32
2019-04-23T23:25:02.645Z,79.13
2019-04-23T23:25:50.915Z,79.22
2019-04-23T23:26:54.178Z,79.22
2019-04-23T23:27:57.724Z,79.13
2019-04-23T23:28:48.857Z,79.32
2019-04-23T23:29:58.159Z,79.32
2019-04-23T23:31:03.154Z,79.80
2019-04-23T23:32:11.172Z,79.60
2019-04-23T23:32:58.800Z,79.41
2019-04-23T23:33:55.752Z,79.41
2019-04-23T23:35:12.921Z,79.32
2019-04-23T23:35:57.255Z,79.32
2019-04-23T23:37:02.173Z,79.32
2019-04-23T23:38:08.366Z,79.03
2019-04-23T23:39:59.919Z,79.32
2019-04-23T23:41:03.643Z,79.13
2019-04-23T23:41:57.224Z,79.32
2019-04-23T23:43:03.674Z,79.32
2019-04-23T23:44:16.627Z,78.74
2019-04-23T23:46:06.947Z,78.17
2019-04-23T23:47:03.204Z,78.17
2019-04-23T23:50:00.989Z,78.74
2019-04-23T23:51:00.726Z,78.55
2019-04-23T23:52:04.778Z,78.84
2019-04-23T23:53:02.719Z,79.32
2019-04-23T23:55:03.994Z,79.32
2019-04-23T23:55:07.851Z,79.60
2019-04-23T23:56:07.377Z,79.32
2019-04-23T23:57:56.795Z,79.70
2019-04-23T23:59:09.195Z,79.80
